createdAt,value
2023-03-25T00:00:18.384Z,80.58
2023-03-25T00:02:48.713Z,80.94
2023-03-25T00:05:17.593Z,80.86
2023-03-25T00:07:50.436Z,80.95
2023-03-25T00:10:17.713Z,80.92
2023-03-25T00:12:45.380Z,81.22
2023-03-25T00:15:13.859Z,81.40
2023-03-25T00:17:41.316Z,81.40
2023-03-25T00:20:10.392Z,81.89
2023-03-25T00:22:41.623Z,81.93
2023-03-25T00:25:19.468Z,81.97
2023-03-25T00:27:51.215Z,81.78
2023-03-25T00:30:21.388Z,82.05
2023-03-25T00:32:53.228Z,82.27
2023-03-25T00:35:22.108Z,82.17
2023-03-25T00:37:57.906Z,82.52
2023-03-25T00:40:25.378Z,82.51
2023-03-25T00:42:52.704Z,82.50
2023-03-25T00:45:19.438Z,83.05
2023-03-25T00:47:46.537Z,82.99
2023-03-25T00:50:14.069Z,82.96
2023-03-25T00:52:41.614Z,82.94
2023-03-25T00:55:09.174Z,83.24
2023-03-25T00:57:36.853Z,82.75
2023-03-25T01:00:08.165Z,83.30
2023-03-25T01:02:35.878Z,83.54
2023-03-25T01:05:02.970Z,83.88
2023-03-25T01:07:32.319Z,83.97
2023-03-25T01:10:00.466Z,83.86
2023-03-25T01:12:28.340Z,84.16
2023-03-25T01:14:56.169Z,84.03
2023-03-25T01:17:23.540Z,84.31
2023-03-25T01:19:51.076Z,84.18
2023-03-25T01:22:18.338Z,84.14
2023-03-25T01:24:45.293Z,84.94
2023-03-25T01:27:12.213Z,84.65
2023-03-25T01:29:39.495Z,84.47
2023-03-25T01:32:06.538Z,84.25
2023-03-25T01:34:33.854Z,84.61
2023-03-25T01:37:01.462Z,84.19
2023-03-25T01:39:28.561Z,84.08
2023-03-25T01:41:55.707Z,84.25
2023-03-25T01:44:22.486Z,84.40
2023-03-25T01:46:54.256Z,84.47
2023-03-25T01:49:44.757Z,84.42
2023-03-25T01:52:24.446Z,84.39
2023-03-25T01:54:54.092Z,84.05
2023-03-25T01:57:23.580Z,83.18
2023-03-25T01:59:52.540Z,83.37
2023-03-25T02:02:20.628Z,82.52
2023-03-25T02:05:05.673Z,81.97
2023-03-25T02:07:35.549Z,81.50
2023-03-25T02:10:06.116Z,81.28
2023-03-25T02:12:33.010Z,81.01
2023-03-25T02:15:02.571Z,80.93
2023-03-25T02:17:48.070Z,81.06
2023-03-25T02:20:39.817Z,81.06
2023-03-25T02:23:58.278Z,81.41
2023-03-25T02:26:42.377Z,82.08
2023-03-25T02:29:41.144Z,82.61
2023-03-25T02:32:29.247Z,82.93
2023-03-25T02:35:21.868Z,83.05
2023-03-25T02:37:58.657Z,83.09
2023-03-25T02:40:41.853Z,83.29
2023-03-25T02:43:45.520Z,83.35
2023-03-25T02:46:17.087Z,82.78
2023-03-25T02:48:54.218Z,82.29
2023-03-25T02:51:28.696Z,82.95
2023-03-25T02:54:01.386Z,82.79
2023-03-25T02:56:33.203Z,82.94
2023-03-25T02:59:04.170Z,82.84
2023-03-25T03:01:35.215Z,82.96
2023-03-25T03:04:02.782Z,82.97
2023-03-25T03:06:30.026Z,82.97
2023-03-25T03:09:09.578Z,82.96
2023-03-25T03:12:09.897Z,82.74
2023-03-25T03:15:15.017Z,82.70
2023-03-25T03:17:50.643Z,82.33
2023-03-25T03:20:33.870Z,82.46
2023-03-25T03:23:02.448Z,82.44
2023-03-25T03:25:36.696Z,82.28
2023-03-25T03:28:10.548Z,82.36
2023-03-25T03:30:49.855Z,82.18
2023-03-25T03:33:26.294Z,82.64
2023-03-25T03:36:02.427Z,82.92
2023-03-25T03:38:35.500Z,82.70
2023-03-25T03:41:10.830Z,82.74
2023-03-25T03:44:12.740Z,82.99
2023-03-25T03:46:59.264Z,83.03
2023-03-25T03:49:38.827Z,82.87
2023-03-25T03:52:19.730Z,82.45
2023-03-25T03:54:55.181Z,82.26
2023-03-25T03:57:41.460Z,82.27
2023-03-25T04:00:33.430Z,82.11
2023-03-25T04:03:26.322Z,82.13
2023-03-25T04:06:08.446Z,82.27
2023-03-25T04:08:59.771Z,82.28
2023-03-25T04:11:55.681Z,82.41
2023-03-25T04:14:22.956Z,82.56
2023-03-25T04:16:49.987Z,82.70
2023-03-25T04:19:19.675Z,82.95
2023-03-25T04:21:48.296Z,83.08
2023-03-25T04:24:17.086Z,83.04
2023-03-25T04:26:44.218Z,83.14
2023-03-25T04:29:11.257Z,83.17
2023-03-25T04:31:46.377Z,83.16
2023-03-25T04:34:15.189Z,83.33
2023-03-25T04:36:43.903Z,83.41
2023-03-25T04:39:12.314Z,83.16
2023-03-25T04:41:40.407Z,83.83
2023-03-25T04:44:08.266Z,84.05
2023-03-25T04:46:36.778Z,84.12
2023-03-25T04:49:06.476Z,84.42
2023-03-25T04:51:33.538Z,84.57
2023-03-25T04:54:01.250Z,84.38
2023-03-25T04:56:28.403Z,84.46
2023-03-25T04:58:55.378Z,84.33
2023-03-25T05:01:31.045Z,84.45
2023-03-25T05:04:06.073Z,84.64
2023-03-25T05:06:34.816Z,84.84
2023-03-25T05:09:04.580Z,84.95
2023-03-25T05:11:34.094Z,84.84
2023-03-25T05:14:01.067Z,84.87
2023-03-25T05:16:27.920Z,84.85
2023-03-25T05:18:54.729Z,84.85
2023-03-25T05:21:22.104Z,85.03
2023-03-25T05:23:48.931Z,84.92
2023-03-25T05:26:15.899Z,85.07
2023-03-25T05:28:42.942Z,85.39
2023-03-25T05:31:10.094Z,85.68
2023-03-25T05:33:43.648Z,86.19
2023-03-25T05:36:12.021Z,86.19
2023-03-25T05:38:42.035Z,87.00
2023-03-25T05:41:16.774Z,87.23
2023-03-25T05:43:47.893Z,87.34
2023-03-25T05:46:15.672Z,87.24
2023-03-25T05:48:43.129Z,87.45
2023-03-25T05:51:18.815Z,87.59
2023-03-25T05:53:50.102Z,87.84
2023-03-25T05:56:19.614Z,87.86
2023-03-25T05:58:47.249Z,87.88
2023-03-25T06:01:29.411Z,87.74
2023-03-25T06:04:02.083Z,87.45
2023-03-25T06:06:32.449Z,86.98
2023-03-25T06:08:59.838Z,86.26
2023-03-25T06:11:26.692Z,85.22
2023-03-25T06:13:53.661Z,84.69
2023-03-25T06:16:23.152Z,84.07
2023-03-25T06:18:56.431Z,83.65
2023-03-25T06:21:24.461Z,83.31
2023-03-25T06:23:51.469Z,82.94
2023-03-25T06:26:20.189Z,83.21
2023-03-25T06:28:47.878Z,82.73
2023-03-25T06:31:17.194Z,82.57
2023-03-25T06:33:45.288Z,83.03
2023-03-25T06:36:15.633Z,83.07
2023-03-25T06:38:42.719Z,82.53
2023-03-25T06:41:09.656Z,81.60
2023-03-25T06:43:36.779Z,81.16
2023-03-25T06:46:04.035Z,80.24
2023-03-25T06:48:31.199Z,80.83
2023-03-25T06:50:58.260Z,80.26
2023-03-25T06:53:26.102Z,79.33
2023-03-25T06:55:53.197Z,79.37
2023-03-25T06:58:21.677Z,79.47
2023-03-25T07:00:54.525Z,79.08
2023-03-25T07:03:21.667Z,79.32
2023-03-25T07:05:51.734Z,79.21
2023-03-25T07:08:18.723Z,78.19
2023-03-25T07:10:50.024Z,77.27
2023-03-25T07:13:24.830Z,76.72
2023-03-25T07:15:55.032Z,76.99
2023-03-25T07:18:21.969Z,76.96
2023-03-25T07:20:49.409Z,75.65
2023-03-25T07:23:16.970Z,75.99
2023-03-25T07:25:43.818Z,75.58
2023-03-25T07:28:11.077Z,74.76
2023-03-25T07:30:38.293Z,74.29
2023-03-25T07:33:05.458Z,73.27
2023-03-25T07:35:32.786Z,73.12
2023-03-25T07:37:59.755Z,72.91
2023-03-25T07:40:26.597Z,73.47
2023-03-25T07:42:53.848Z,72.75
2023-03-25T07:45:20.930Z,72.27
2023-03-25T07:47:50.632Z,71.81
2023-03-25T07:50:18.788Z,71.88
2023-03-25T07:52:46.783Z,72.60
2023-03-25T07:55:14.782Z,71.38
2023-03-25T07:57:44.824Z,72.06
2023-03-25T08:00:12.946Z,71.22
2023-03-25T08:02:40.574Z,70.91
2023-03-25T08:05:08.221Z,70.85
2023-03-25T08:07:35.903Z,70.44
2023-03-25T08:10:03.229Z,69.40
2023-03-25T08:12:30.174Z,70.00
2023-03-25T08:14:57.107Z,68.26
2023-03-25T08:17:23.981Z,66.32
2023-03-25T08:19:51.211Z,64.64
2023-03-25T08:22:18.608Z,65.62
2023-03-25T08:24:45.647Z,66.00
2023-03-25T08:27:14.526Z,65.96
2023-03-25T08:29:43.649Z,64.85
2023-03-25T08:32:11.016Z,64.19
2023-03-25T08:34:40.296Z,63.88
2023-03-25T08:37:08.311Z,64.58
2023-03-25T08:39:40.209Z,64.04
2023-03-25T08:42:08.872Z,63.37
2023-03-25T08:44:36.445Z,62.45
2023-03-25T08:47:03.804Z,61.01
2023-03-25T08:49:31.506Z,60.52
2023-03-25T08:52:00.455Z,60.37
2023-03-25T08:54:28.689Z,60.60
2023-03-25T08:56:56.052Z,60.71
2023-03-25T08:59:23.274Z,60.38
2023-03-25T09:01:50.234Z,61.59
2023-03-25T09:04:17.350Z,60.06
2023-03-25T09:06:47.184Z,58.54
2023-03-25T09:09:16.709Z,58.13
2023-03-25T09:11:44.478Z,57.64
2023-03-25T09:14:11.653Z,58.05
2023-03-25T09:16:39.046Z,58.42
2023-03-25T09:19:06.056Z,58.07
2023-03-25T09:21:33.129Z,56.61
2023-03-25T09:24:00.491Z,54.94
2023-03-25T09:26:27.937Z,52.61
2023-03-25T09:28:58.049Z,52.11
2023-03-25T09:31:25.037Z,49.98
2023-03-25T09:33:52.684Z,48.89
2023-03-25T09:36:20.017Z,48.00
2023-03-25T09:38:47.092Z,48.48
2023-03-25T09:41:44.684Z,47.87
2023-03-25T09:44:37.663Z,47.80
2023-03-25T09:47:06.231Z,49.72
2023-03-25T09:49:43.023Z,47.62
2023-03-25T09:52:24.908Z,47.21
2023-03-25T09:55:03.658Z,47.67
2023-03-25T09:57:49.413Z,48.11
2023-03-25T10:00:20.903Z,49.38
2023-03-25T10:03:14.062Z,48.94
2023-03-25T10:05:46.775Z,47.54
2023-03-25T10:08:48.796Z,46.42
2023-03-25T10:11:53.794Z,45.77
2023-03-25T10:15:05.667Z,45.90
2023-03-25T10:17:56.902Z,43.65
2023-03-25T10:21:08.295Z,43.08
2023-03-25T10:23:43.386Z,42.21
2023-03-25T10:26:25.832Z,44.02
2023-03-25T10:29:04.454Z,45.53
2023-03-25T10:31:36.268Z,43.56
2023-03-25T10:34:07.693Z,43.51
2023-03-25T10:36:40.810Z,43.37
2023-03-25T10:39:19.359Z,42.92
2023-03-25T10:42:13.048Z,43.13
2023-03-25T10:44:40.093Z,42.90
2023-03-25T10:47:16.437Z,43.21
2023-03-25T10:49:46.922Z,43.88
2023-03-25T10:52:14.318Z,43.54
2023-03-25T10:54:45.859Z,43.93
2023-03-25T10:57:42.648Z,43.56
2023-03-25T11:00:17.954Z,43.79
2023-03-25T11:02:47.053Z,45.15
2023-03-25T11:05:19.698Z,45.14
2023-03-25T11:07:52.270Z,46.30
2023-03-25T11:10:26.688Z,47.47
2023-03-25T11:12:58.479Z,48.08
2023-03-25T11:15:30.711Z,48.96
2023-03-25T11:18:05.445Z,48.79
2023-03-25T11:20:41.442Z,47.39
2023-03-25T11:23:25.132Z,48.96
2023-03-25T11:25:55.440Z,50.08
2023-03-25T11:28:39.615Z,49.69
2023-03-25T11:31:08.138Z,50.22
2023-03-25T11:33:37.556Z,50.67
2023-03-25T11:36:18.354Z,50.70
2023-03-25T11:38:46.937Z,50.13
2023-03-25T11:41:15.112Z,49.80
2023-03-25T11:43:42.574Z,50.49
2023-03-25T11:46:19.105Z,50.48
2023-03-25T11:48:47.120Z,50.65
2023-03-25T11:51:28.729Z,49.95
2023-03-25T11:53:59.701Z,50.53
2023-03-25T11:56:35.164Z,50.85
2023-03-25T11:59:03.543Z,51.88
2023-03-25T12:01:42.821Z,52.13
2023-03-25T12:04:22.832Z,52.44
2023-03-25T12:07:19.685Z,52.01
2023-03-25T12:09:56.099Z,51.83
2023-03-25T12:12:26.358Z,52.01
2023-03-25T12:15:12.094Z,52.80
2023-03-25T12:18:02.122Z,52.72
2023-03-25T12:20:55.961Z,52.47
2023-03-25T12:23:26.165Z,53.10
2023-03-25T12:26:01.056Z,51.25
2023-03-25T12:28:49.496Z,51.20
2023-03-25T12:31:41.074Z,49.92
2023-03-25T12:34:46.662Z,50.07
2023-03-25T12:37:32.869Z,47.74
2023-03-25T12:40:15.593Z,45.57
2023-03-25T12:43:00.839Z,44.97
2023-03-25T12:45:54.686Z,45.50
2023-03-25T12:48:55.285Z,46.44
2023-03-25T12:51:29.965Z,46.49
2023-03-25T12:54:31.525Z,47.13
2023-03-25T12:57:16.684Z,47.36
2023-03-25T13:00:08.511Z,46.88
2023-03-25T13:03:02.374Z,46.65
2023-03-25T13:05:42.329Z,46.35
2023-03-25T13:08:57.892Z,46.97
2023-03-25T13:11:33.846Z,47.36
2023-03-25T13:14:07.206Z,47.46
2023-03-25T13:16:37.758Z,47.42
2023-03-25T13:19:14.642Z,47.51
2023-03-25T13:21:53.015Z,45.88
2023-03-25T13:24:38.493Z,45.52
2023-03-25T13:27:07.299Z,46.59
2023-03-25T13:29:42.018Z,47.20
2023-03-25T13:32:17.447Z,47.32
2023-03-25T13:34:55.122Z,48.63
2023-03-25T13:37:29.715Z,48.75
2023-03-25T13:39:59.325Z,48.76
2023-03-25T13:42:39.065Z,49.31
2023-03-25T13:45:07.939Z,49.45
2023-03-25T13:47:44.906Z,50.11
2023-03-25T13:50:23.549Z,50.68
2023-03-25T13:52:57.209Z,49.04
2023-03-25T13:55:35.684Z,47.89
2023-03-25T13:58:22.887Z,47.44
2023-03-25T14:01:13.179Z,47.81
2023-03-25T14:04:01.359Z,49.25
2023-03-25T14:06:50.319Z,50.88
2023-03-25T14:09:29.761Z,52.04
2023-03-25T14:12:16.204Z,52.56
2023-03-25T14:14:49.925Z,52.99
2023-03-25T14:17:19.073Z,53.07
2023-03-25T14:19:55.625Z,53.08
2023-03-25T14:22:28.818Z,53.02
2023-03-25T14:24:57.545Z,53.74
2023-03-25T14:27:31.776Z,53.47
2023-03-25T14:30:06.707Z,54.33
2023-03-25T14:32:40.594Z,53.93
2023-03-25T14:35:35.314Z,54.64
2023-03-25T14:38:08.894Z,54.79
2023-03-25T14:41:02.015Z,54.43
2023-03-25T14:43:46.694Z,53.90
2023-03-25T14:46:14.413Z,53.97
2023-03-25T14:49:18.802Z,54.05
2023-03-25T14:51:54.646Z,54.11
2023-03-25T14:54:34.009Z,54.21
2023-03-25T14:57:23.056Z,54.56
2023-03-25T15:00:14.485Z,54.84
2023-03-25T15:02:44.234Z,55.11
2023-03-25T15:05:26.751Z,55.18
2023-03-25T15:07:59.868Z,55.80
2023-03-25T15:10:34.963Z,56.52
2023-03-25T15:13:14.107Z,55.88
2023-03-25T15:15:48.098Z,56.43
2023-03-25T15:18:37.486Z,55.83
2023-03-25T15:21:12.953Z,55.80
2023-03-25T15:24:04.242Z,55.33
2023-03-25T15:26:40.575Z,55.14
2023-03-25T15:29:32.432Z,55.67
2023-03-25T15:32:21.657Z,55.43
2023-03-25T15:35:29.222Z,55.63
2023-03-25T15:38:21.041Z,55.94
2023-03-25T15:41:15.767Z,56.64
2023-03-25T15:44:12.562Z,57.18
2023-03-25T15:46:54.658Z,57.84
2023-03-25T15:49:46.497Z,57.59
2023-03-25T15:52:42.089Z,57.53
2023-03-25T15:55:27.442Z,58.01
2023-03-25T15:58:08.028Z,58.18
2023-03-25T16:00:40.820Z,58.15
2023-03-25T16:03:14.811Z,58.03
2023-03-25T16:05:49.855Z,58.18
2023-03-25T16:08:22.891Z,58.17
2023-03-25T16:11:01.626Z,58.39
2023-03-25T16:13:28.638Z,58.69
2023-03-25T16:15:58.282Z,58.93
2023-03-25T16:18:26.723Z,59.07
2023-03-25T16:21:02.245Z,59.08
2023-03-25T16:23:31.070Z,58.90
2023-03-25T16:25:58.010Z,59.01
2023-03-25T16:28:29.287Z,59.40
2023-03-25T16:30:57.198Z,59.06
2023-03-25T16:33:33.098Z,59.20
2023-03-25T16:36:14.717Z,58.98
2023-03-25T16:38:41.948Z,59.52
2023-03-25T16:41:13.605Z,59.39
2023-03-25T16:43:42.240Z,59.59
2023-03-25T16:46:12.116Z,59.72
2023-03-25T16:48:54.109Z,59.20
2023-03-25T16:51:29.386Z,59.18
2023-03-25T16:54:01.457Z,59.36
2023-03-25T16:56:36.672Z,59.91
2023-03-25T16:59:16.557Z,59.45
2023-03-25T17:01:51.662Z,59.45
2023-03-25T17:04:22.800Z,59.67
2023-03-25T17:06:53.528Z,60.28
2023-03-25T17:09:40.414Z,60.47
2023-03-25T17:12:17.041Z,61.39
2023-03-25T17:14:47.121Z,62.16
2023-03-25T17:17:42.627Z,62.20
2023-03-25T17:20:29.411Z,62.40
2023-03-25T17:23:04.816Z,62.69
2023-03-25T17:25:56.354Z,62.75
2023-03-25T17:29:16.769Z,63.35
2023-03-25T17:32:00.316Z,63.99
2023-03-25T17:34:54.807Z,63.78
2023-03-25T17:37:25.427Z,63.94
2023-03-25T17:39:53.270Z,63.65
2023-03-25T17:42:26.398Z,63.62
2023-03-25T17:44:54.832Z,63.87
2023-03-25T17:47:22.491Z,64.19
2023-03-25T17:49:51.994Z,64.51
2023-03-25T17:52:20.627Z,64.58
2023-03-25T17:54:48.139Z,64.52
2023-03-25T17:57:18.383Z,64.72
2023-03-25T17:59:47.447Z,64.74
2023-03-25T18:02:16.582Z,64.86
2023-03-25T18:04:44.415Z,64.72
2023-03-25T18:07:11.662Z,64.94
2023-03-25T18:09:39.933Z,65.27
2023-03-25T18:12:07.691Z,65.45
2023-03-25T18:14:35.507Z,65.42
2023-03-25T18:17:04.349Z,65.07
2023-03-25T18:19:32.359Z,65.15
2023-03-25T18:22:09.917Z,65.06
2023-03-25T18:24:41.184Z,65.52
2023-03-25T18:27:14.726Z,65.70
2023-03-25T18:29:41.746Z,65.64
2023-03-25T18:32:08.819Z,65.56
2023-03-25T18:34:36.628Z,65.36
2023-03-25T18:37:03.832Z,65.25
2023-03-25T18:39:32.737Z,65.37
2023-03-25T18:41:59.770Z,65.34
2023-03-25T18:44:28.952Z,65.42
2023-03-25T18:46:55.837Z,65.48
2023-03-25T18:49:23.079Z,65.42
2023-03-25T18:51:50.157Z,65.74
2023-03-25T18:54:17.852Z,65.74
2023-03-25T18:56:45.694Z,65.84
2023-03-25T18:59:18.074Z,65.84
2023-03-25T19:01:45.365Z,66.14
2023-03-25T19:04:12.204Z,66.19
2023-03-25T19:06:39.641Z,66.55
2023-03-25T19:09:09.551Z,66.64
2023-03-25T19:11:37.268Z,66.53
2023-03-25T19:14:04.544Z,66.89
2023-03-25T19:16:31.443Z,66.91
2023-03-25T19:19:00.471Z,67.15
2023-03-25T19:21:27.556Z,67.18
2023-03-25T19:23:54.400Z,67.21
2023-03-25T19:26:21.555Z,66.97
2023-03-25T19:28:48.808Z,66.88
2023-03-25T19:31:16.859Z,66.60
2023-03-25T19:33:44.122Z,66.46
2023-03-25T19:36:16.201Z,66.50
2023-03-25T19:38:43.267Z,66.36
2023-03-25T19:41:12.547Z,66.72
2023-03-25T19:43:39.880Z,66.76
2023-03-25T19:46:08.845Z,66.72
2023-03-25T19:48:37.060Z,66.71
2023-03-25T19:51:15.870Z,66.70
2023-03-25T19:53:44.899Z,67.07
2023-03-25T19:56:14.368Z,66.76
2023-03-25T19:58:42.539Z,67.07
2023-03-25T20:01:09.875Z,67.01
2023-03-25T20:03:39.125Z,66.86
2023-03-25T20:06:07.382Z,66.51
2023-03-25T20:08:34.309Z,66.04
2023-03-25T20:11:09.548Z,65.88
2023-03-25T20:13:37.505Z,65.43
2023-03-25T20:16:05.992Z,64.57
2023-03-25T20:18:33.703Z,65.18
2023-03-25T20:21:00.798Z,65.33
2023-03-25T20:23:28.056Z,64.89
2023-03-25T20:25:55.439Z,65.05
2023-03-25T20:28:23.437Z,65.06
2023-03-25T20:30:50.975Z,65.08
2023-03-25T20:33:18.953Z,65.37
2023-03-25T20:35:46.305Z,65.48
2023-03-25T20:38:14.642Z,65.76
2023-03-25T20:40:44.987Z,65.86
2023-03-25T20:43:14.993Z,66.35
2023-03-25T20:45:43.038Z,66.64
2023-03-25T20:48:10.349Z,67.19
2023-03-25T20:50:37.629Z,67.59
2023-03-25T20:53:06.119Z,68.01
2023-03-25T20:55:33.363Z,68.08
2023-03-25T20:58:00.184Z,68.08
2023-03-25T21:00:27.225Z,68.55
2023-03-25T21:02:54.774Z,68.19
2023-03-25T21:05:21.932Z,67.53
2023-03-25T21:07:49.268Z,67.72
2023-03-25T21:10:17.127Z,67.89
2023-03-25T21:12:45.046Z,68.04
2023-03-25T21:15:15.137Z,67.62
2023-03-25T21:17:42.792Z,67.46
2023-03-25T21:20:10.965Z,67.63
2023-03-25T21:22:43.456Z,67.56
2023-03-25T21:25:13.373Z,66.90
2023-03-25T21:27:42.856Z,66.61
2023-03-25T21:30:10.821Z,66.24
2023-03-25T21:32:39.443Z,66.15
2023-03-25T21:35:08.488Z,66.20
2023-03-25T21:37:39.768Z,65.82
2023-03-25T21:40:10.813Z,65.59
2023-03-25T21:42:39.273Z,66.16
2023-03-25T21:45:08.382Z,66.77
2023-03-25T21:47:37.233Z,67.98
2023-03-25T21:50:07.541Z,68.13
2023-03-25T21:52:34.564Z,68.40
2023-03-25T21:55:02.488Z,68.78
2023-03-25T21:57:31.109Z,69.45
2023-03-25T21:59:58.627Z,68.79
2023-03-25T22:02:25.957Z,69.33
2023-03-25T22:04:53.046Z,69.15
2023-03-25T22:07:19.951Z,69.32
2023-03-25T22:09:49.102Z,69.06
2023-03-25T22:12:16.492Z,68.82
2023-03-25T22:14:43.421Z,68.74
2023-03-25T22:17:11.056Z,68.54
2023-03-25T22:19:40.139Z,68.56
2023-03-25T22:22:11.547Z,68.40
2023-03-25T22:24:38.539Z,68.33
2023-03-25T22:27:06.321Z,69.05
2023-03-25T22:29:34.214Z,68.73
2023-03-25T22:32:07.119Z,68.67
2023-03-25T22:34:35.063Z,69.35
2023-03-25T22:37:02.790Z,69.16
2023-03-25T22:39:30.186Z,69.47
2023-03-25T22:42:00.594Z,69.70
2023-03-25T22:44:28.493Z,69.25
2023-03-25T22:46:55.853Z,68.51
2023-03-25T22:49:23.276Z,69.28
2023-03-25T22:51:51.327Z,69.45
2023-03-25T22:54:18.618Z,69.42
2023-03-25T22:56:45.880Z,69.82
2023-03-25T22:59:14.251Z,69.30
2023-03-25T23:01:54.205Z,69.39
2023-03-25T23:04:21.794Z,69.58
2023-03-25T23:06:57.262Z,69.45
2023-03-25T23:09:42.368Z,69.21
2023-03-25T23:12:14.301Z,70.12
2023-03-25T23:14:43.423Z,69.76
2023-03-25T23:17:13.608Z,69.36
2023-03-25T23:19:42.191Z,69.54
2023-03-25T23:22:09.422Z,70.00
2023-03-25T23:24:38.142Z,71.04
2023-03-25T23:27:07.540Z,71.07
2023-03-25T23:29:41.998Z,71.52
2023-03-25T23:32:10.038Z,71.97
2023-03-25T23:34:38.834Z,72.61
2023-03-25T23:37:08.087Z,73.57
2023-03-25T23:39:35.767Z,74.01
2023-03-25T23:42:03.366Z,74.32
2023-03-25T23:44:31.488Z,74.21
2023-03-25T23:46:58.548Z,74.34
2023-03-25T23:49:25.576Z,73.85
2023-03-25T23:51:52.641Z,74.31
2023-03-25T23:54:19.568Z,74.24
2023-03-25T23:56:46.521Z,74.35
2023-03-25T23:59:13.659Z,74.32
